Decoded Metar for CYKP ( in ) (IATA:) | Meteo·Mobile Aviation Weather
aviador You're here:

CYKP Decoded Metar

in
Report Time2019-06-18 14:00:00
UTC Time2019-06-18 14:43:36
Flight Rules vfr VFR
Wind360° at 07 kt
W.Decomp.*RWY 27: 7.0 kt RCW
Visibility9999 m
Phenomena:N/A
Clouds:Scattered 050 Hf
Expected CloudBase > 3,600 ft AGL from Temp-Dew spread
CeilingNone
Temp14°C
Dew Point05°C (55% RH)
AAT10.4°C
QNH1018 hPa
Raw Report
METAR CYKP 181400Z AUTO 36007KT 330V050 9SM SCT050 14/05 A3005 RMK SLP177=

Extra information for CYKP:More info

Social comments